Terminal Aerodrome Forecast
Issued by NWS

Home | Current Version | Previous Version | Graphics & Text | Print | Product List | Glossary On
Versions: 1 2 3 4 5 6 7 8 9 10 11 12 13 14 15 16 17 18 19 20 21 22 23 24 25 26 27 28 29 30 31 32 33
000
FTUS43 KLOT 162218 AAC
TAFORD
TAF AMD
KORD 162218Z 1622/1724 09006KT 1SM -SHRA BR OVC005
     FM170100 10009KT 1SM SHRA BR OVC003
      TEMPO 1702/1704 09012KT 1/2SM TSRA FG OVC003CB
     FM170600 VRB03KT 3/4SM -RADZ BR OVC003
      TEMPO 1706/1710 1/2SM FG
     FM171300 24010KT 2SM BR VCSH OVC005
     FM171600 27008KT P6SM VCSH OVC006=

USA.gov is the U.S. government's official web portal to all federal, state and local government web resources and services.